Time;durP1;ratioP1;P1;durP2;ratioP2;P2;SDS_P1;SDS_P2;PMS_P1;PMS_P2;Temp;Humidity;BMP_temperature;BMP_pressure;BME280_temperature;BME280_humidity;BME280_pressure;Samples;Min_cycle;Max_cycle;Signal;HPM_P1;HPM_P2
2022/05/01 00:01:51;;;;;;;18.83;12.37;;;12.50;99.90;;;;;;7387678;19;20134;-74
2022/05/01 00:04:17;;;;;;;18.67;13.90;;;12.50;99.90;;;;;;7388523;19;20127;-74
2022/05/01 00:06:43;;;;;;;18.90;13.40;;;12.50;99.90;;;;;;7387400;19;20139;-74
2022/05/01 00:09:09;;;;;;;21.83;13.00;;;12.60;99.90;;;;;;7387697;19;20142;-75
2022/05/01 00:11:34;;;;;;;18.37;12.97;;;12.60;99.90;;;;;;7385398;19;20143;-74
2022/05/01 00:14:00;;;;;;;19.67;13.33;;;12.60;99.90;;;;;;7391128;19;20129;-74
2022/05/01 00:16:26;;;;;;;19.83;13.87;;;12.50;99.90;;;;;;7399122;19;20127;-74
2022/05/01 00:18:52;;;;;;;20.20;14.33;;;12.60;99.90;;;;;;7390192;19;20578;-75
2022/05/01 00:21:18;;;;;;;19.13;13.07;;;12.60;99.90;;;;;;7388931;19;20147;-74
2022/05/01 00:23:44;;;;;;;21.90;13.60;;;12.50;99.90;;;;;;7387953;19;20545;-74
2022/05/01 00:26:10;;;;;;;18.13;13.23;;;12.50;99.90;;;;;;7387043;19;20141;-76
2022/05/01 00:28:36;;;;;;;18.73;13.50;;;12.50;99.90;;;;;;7385768;19;20146;-74
2022/05/01 00:31:05;;;;;;;20.45;13.98;;;12.50;99.90;;;;;;7388887;19;20119;-76
2022/05/01 00:36:27;;;;;;;22.23;15.13;;;12.50;99.90;;;;;;7388583;19;20139;-73
2022/05/01 00:39:02;;;;;;;21.60;14.83;;;12.60;99.90;;;;;;7391076;19;20167;-75
2022/05/01 00:41:28;;;;;;;20.60;14.53;;;12.70;99.90;;;;;;7391473;19;20767;-74
2022/05/01 00:44:08;;;;;;;25.27;15.05;;;12.70;99.90;;;;;;7386173;19;20138;-74
2022/05/01 00:46:36;;;;;;;22.80;14.50;;;12.60;99.90;;;;;;7386956;19;20883;-75
2022/05/01 00:49:04;;;;;;;23.17;15.07;;;12.60;99.90;;;;;;7386592;19;20131;-75
2022/05/01 00:51:33;;;;;;;23.60;15.47;;;12.50;99.90;;;;;;7386719;19;20131;-74
2022/05/01 00:54:02;;;;;;;23.90;16.63;;;12.50;99.90;;;;;;7387719;19;20161;-75
2022/05/01 00:56:30;;;;;;;22.30;14.93;;;12.40;99.90;;;;;;7388123;19;20143;-74
2022/05/01 00:58:57;;;;;;;27.27;17.47;;;12.30;99.90;;;;;;7391581;19;20202;-75
2022/05/01 01:01:22;;;;;;;23.97;15.63;;;12.40;99.90;;;;;;7386835;19;20127;-75
2022/05/01 01:03:48;;;;;;;24.83;14.60;;;12.40;99.90;;;;;;7389914;19;20130;-74
2022/05/01 01:06:14;;;;;;;25.87;16.00;;;12.40;99.90;;;;;;7385666;19;20174;-74
2022/05/01 01:08:40;;;;;;;22.40;14.80;;;12.40;99.90;;;;;;7387641;19;20127;-74
2022/05/01 01:11:06;;;;;;;22.60;14.93;;;12.30;99.90;;;;;;7387483;19;20130;-74
2022/05/01 01:13:32;;;;;;;25.07;16.73;;;12.40;99.90;;;;;;7389991;19;20559;-74
2022/05/01 01:15:58;;;;;;;27.43;16.50;;;12.40;99.90;;;;;;7385114;19;20147;-75
2022/05/01 01:18:25;;;;;;;27.87;16.67;;;12.40;99.90;;;;;;7388401;19;20607;-76
2022/05/01 01:20:51;;;;;;;23.63;15.30;;;12.50;99.90;;;;;;7389860;19;20182;-74
2022/05/01 01:23:18;;;;;;;23.73;15.47;;;12.40;99.90;;;;;;7390068;19;20205;-74
2022/05/01 01:25:44;;;;;;;26.37;15.93;;;12.30;99.90;;;;;;7386730;19;20155;-74
2022/05/01 01:28:10;;;;;;;23.53;15.80;;;12.40;99.90;;;;;;7388210;19;20885;-75
2022/05/01 01:33:23;;;;;;;22.03;14.70;;;12.60;99.90;;;;;;7385855;19;20251;-76
2022/05/01 01:35:50;;;;;;;22.90;15.23;;;12.50;99.90;;;;;;7385163;19;20214;-75
2022/05/01 01:38:17;;;;;;;23.90;15.13;;;12.50;99.90;;;;;;7389373;19;20752;-74
2022/05/01 01:40:45;;;;;;;26.40;15.63;;;12.50;99.90;;;;;;7386936;19;20221;-75
2022/05/01 01:43:12;;;;;;;24.37;15.27;;;12.40;99.90;;;;;;7390050;19;20122;-75
2022/05/01 01:45:38;;;;;;;28.83;15.80;;;12.40;99.90;;;;;;7385417;19;20606;-75
2022/05/01 01:48:15;;;;;;;20.17;14.03;;;12.40;99.90;;;;;;7386361;19;20138;-74
2022/05/01 01:50:42;;;;;;;21.53;14.30;;;12.40;99.90;;;;;;7385915;19;20134;-75
2022/05/01 01:53:10;;;;;;;24.70;15.03;;;12.40;99.90;;;;;;7387233;19;20139;-75
2022/05/01 01:55:38;;;;;;;25.17;15.57;;;12.50;99.90;;;;;;7385419;19;20857;-75
2022/05/01 01:58:05;;;;;;;23.13;14.90;;;12.60;99.90;;;;;;7384511;19;20160;-74
2022/05/01 02:00:32;;;;;;;22.90;15.23;;;12.50;99.90;;;;;;7386281;19;20134;-74
2022/05/01 02:03:03;;;;;;;19.30;14.07;;;12.60;99.90;;;;;;7387687;19;20127;-75
2022/05/01 02:05:30;;;;;;;21.30;14.50;;;12.50;99.90;;;;;;7386956;19;20143;-74
2022/05/01 02:07:57;;;;;;;22.90;15.83;;;12.50;99.90;;;;;;7384166;19;20166;-75
2022/05/01 02:10:23;;;;;;;21.60;13.87;;;12.60;99.90;;;;;;7386712;19;20172;-75
2022/05/01 02:12:49;;;;;;;21.43;13.47;;;12.50;99.90;;;;;;7386845;19;20126;-74
2022/05/01 02:15:15;;;;;;;20.27;15.17;;;12.50;99.90;;;;;;7384459;19;20191;-76
2022/05/01 02:17:41;;;;;;;20.80;14.27;;;12.60;99.90;;;;;;7383350;19;20135;-76
2022/05/01 02:20:08;;;;;;;24.33;14.73;;;12.60;99.90;;;;;;7390398;19;20483;-75
2022/05/01 02:22:35;;;;;;;19.63;13.23;;;12.60;99.90;;;;;;7385706;19;20638;-75
2022/05/01 02:25:02;;;;;;;21.17;14.40;;;12.60;99.90;;;;;;7383744;19;20150;-76
2022/05/01 02:27:28;;;;;;;20.73;14.13;;;12.50;99.90;;;;;;7389334;19;20171;-75
2022/05/01 02:29:54;;;;;;;24.60;15.00;;;12.50;99.90;;;;;;7386415;19;20246;-75
2022/05/01 02:32:20;;;;;;;23.30;14.20;;;12.50;99.90;;;;;;7384065;19;20170;-75
2022/05/01 02:34:45;;;;;;;22.93;14.20;;;12.50;99.90;;;;;;7389171;19;20146;-76
2022/05/01 02:37:11;;;;;;;20.17;13.83;;;12.40;99.90;;;;;;7390908;19;20136;-74
2022/05/01 02:39:37;;;;;;;19.50;12.67;;;12.40;99.90;;;;;;7396973;19;20158;-76
2022/05/01 02:42:03;;;;;;;21.83;13.23;;;12.30;99.90;;;;;;7393181;19;20145;-75
2022/05/01 02:44:30;;;;;;;19.47;13.13;;;12.40;99.90;;;;;;7392894;19;20134;-75
2022/05/01 02:46:57;;;;;;;22.20;14.10;;;12.40;99.90;;;;;;7392501;19;20472;-74
2022/05/01 02:49:23;;;;;;;22.10;13.73;;;12.40;99.90;;;;;;7391198;19;20407;-74
2022/05/01 02:51:49;;;;;;;22.40;12.73;;;12.40;99.90;;;;;;7392579;19;20123;-75
2022/05/01 02:54:15;;;;;;;19.57;12.90;;;12.30;99.90;;;;;;7390367;19;20137;-73
2022/05/01 02:56:40;;;;;;;19.53;12.10;;;12.40;99.90;;;;;;7389638;19;20582;-75
2022/05/01 02:59:09;;;;;;;20.23;13.17;;;12.40;99.90;;;;;;7391585;19;20131;-74
2022/05/01 03:01:36;;;;;;;22.50;14.27;;;12.20;99.90;;;;;;7396520;19;20150;-76
2022/05/01 03:04:03;;;;;;;19.67;12.97;;;12.10;99.90;;;;;;7393311;19;20154;-74
2022/05/01 03:06:28;;;;;;;21.47;14.47;;;11.90;99.90;;;;;;7389095;19;20621;-77
2022/05/01 03:08:54;;;;;;;20.57;13.27;;;12.00;99.90;;;;;;7392469;19;20134;-75
2022/05/01 03:11:20;;;;;;;20.83;13.85;;;12.00;99.90;;;;;;7392447;19;20127;-74
2022/05/01 03:13:46;;;;;;;20.53;13.60;;;12.10;99.90;;;;;;7390049;19;20202;-75
2022/05/01 03:16:12;;;;;;;21.57;13.60;;;12.30;99.90;;;;;;7388906;19;20130;-74
2022/05/01 03:24:06;;;;;;;22.73;14.20;;;12.40;99.90;;;;;;7392217;19;20130;-74
2022/05/01 03:26:33;;;;;;;21.13;14.47;;;12.40;99.90;;;;;;7389832;19;20518;-73
2022/05/01 03:28:59;;;;;;;24.03;14.50;;;12.30;99.90;;;;;;7392465;19;20146;-73
2022/05/01 03:31:27;;;;;;;25.83;14.47;;;12.40;99.90;;;;;;7390042;19;20182;-74
2022/05/01 03:33:54;;;;;;;20.57;13.73;;;12.30;99.90;;;;;;7391942;19;20602;-74
2022/05/01 03:36:20;;;;;;;22.93;14.47;;;12.30;99.90;;;;;;7389497;19;20162;-75
2022/05/01 03:38:46;;;;;;;25.13;14.97;;;12.20;99.90;;;;;;7388552;19;20146;-73
2022/05/01 03:41:16;;;;;;;26.67;16.00;;;12.20;99.90;;;;;;7389052;19;20131;-74
2022/05/01 03:43:42;;;;;;;24.33;14.63;;;12.20;99.90;;;;;;7389152;19;20131;-74
2022/05/01 03:46:08;;;;;;;26.10;15.47;;;12.20;99.90;;;;;;7391387;19;20681;-74
2022/05/01 03:48:34;;;;;;;26.03;15.47;;;12.20;99.90;;;;;;7388807;19;20472;-73
2022/05/01 03:51:00;;;;;;;25.30;15.27;;;12.30;99.90;;;;;;7390997;19;20150;-73
2022/05/01 03:53:26;;;;;;;24.40;15.80;;;12.20;99.90;;;;;;7389291;19;20177;-75
2022/05/01 03:55:52;;;;;;;23.73;15.53;;;12.10;99.90;;;;;;7387030;19;20641;-75
2022/05/01 03:58:19;;;;;;;26.23;15.37;;;12.10;99.90;;;;;;7388157;19;20135;-73
2022/05/01 04:00:47;;;;;;;26.97;16.40;;;12.10;99.90;;;;;;7389766;19;20127;-75
2022/05/01 04:03:16;;;;;;;22.90;15.43;;;12.20;99.90;;;;;;7396640;19;20166;-74
2022/05/01 04:05:42;;;;;;;28.40;15.93;;;11.90;99.90;;;;;;7388601;19;20135;-74
2022/05/01 04:08:09;;;;;;;27.90;16.13;;;11.90;99.90;;;;;;7390044;19;20236;-74
2022/05/01 04:10:41;;;;;;;23.77;14.90;;;12.10;99.90;;;;;;7389565;19;20130;-76
2022/05/01 04:13:07;;;;;;;24.07;15.63;;;12.10;99.90;;;;;;7389502;19;20130;-75
2022/05/01 04:15:33;;;;;;;22.97;14.63;;;12.10;99.90;;;;;;7390096;19;20127;-74
2022/05/01 04:18:02;;;;;;;22.47;14.10;;;12.10;99.90;;;;;;7387080;19;20138;-75
2022/05/01 04:20:28;;;;;;;21.00;13.87;;;12.00;99.90;;;;;;7388745;19;20136;-74
2022/05/01 04:22:54;;;;;;;21.57;13.30;;;12.00;99.90;;;;;;7390612;19;20202;-74
2022/05/01 04:25:29;;;;;;;20.33;13.20;;;12.10;99.90;;;;;;7393496;19;20147;-76
2022/05/01 04:28:01;;;;;;;24.03;14.20;;;12.20;99.90;;;;;;7389689;19;20498;-74
2022/05/01 04:30:27;;;;;;;22.50;13.73;;;12.20;99.90;;;;;;7386622;19;20516;-74
2022/05/01 04:33:02;;;;;;;21.37;14.00;;;12.20;99.90;;;;;;7387434;19;20131;-75
2022/05/01 04:35:31;;;;;;;19.50;13.67;;;12.30;99.90;;;;;;7389201;19;20142;-74
2022/05/01 04:38:04;;;;;;;22.17;13.70;;;12.30;99.90;;;;;;7388205;19;20135;-74
2022/05/01 04:40:41;;;;;;;18.30;12.47;;;12.30;99.90;;;;;;7389420;19;20150;-75
2022/05/01 04:43:08;;;;;;;20.90;12.77;;;12.30;99.90;;;;;;7387218;19;20150;-74
2022/05/01 04:45:35;;;;;;;21.97;13.17;;;12.40;99.90;;;;;;7387480;19;20157;-75
2022/05/01 04:48:02;;;;;;;19.17;13.57;;;12.40;99.90;;;;;;7392544;19;20154;-74
2022/05/01 04:50:28;;;;;;;22.07;13.73;;;12.30;99.90;;;;;;7387781;19;20677;-75
2022/05/01 04:52:55;;;;;;;19.20;12.70;;;12.10;99.90;;;;;;7388600;19;20148;-75
2022/05/01 04:55:21;;;;;;;19.60;13.53;;;12.20;99.90;;;;;;7387441;19;20147;-74
2022/05/01 04:57:47;;;;;;;21.07;13.73;;;12.40;99.90;;;;;;7385910;19;20197;-75
2022/05/01 05:00:13;;;;;;;20.53;13.13;;;12.40;99.90;;;;;;7387635;19;20135;-75
2022/05/01 05:02:44;;;;;;;20.03;13.67;;;12.20;99.90;;;;;;7387742;19;20127;-74
2022/05/01 05:05:11;;;;;;;22.63;13.77;;;12.10;99.90;;;;;;7390388;19;20135;-74
2022/05/01 05:07:39;;;;;;;19.40;13.23;;;12.10;99.90;;;;;;7389051;19;20139;-75
2022/05/01 05:10:07;;;;;;;20.97;14.53;;;12.10;99.90;;;;;;7389202;19;20142;-76
2022/05/01 05:12:33;;;;;;;23.43;14.27;;;12.10;99.90;;;;;;7388599;19;20130;-75
2022/05/01 05:15:01;;;;;;;24.57;13.50;;;12.10;99.90;;;;;;7385841;19;20161;-74
2022/05/01 05:17:29;;;;;;;21.03;15.00;;;12.00;99.90;;;;;;7385636;19;20130;-75
2022/05/01 05:19:55;;;;;;;20.47;14.17;;;12.10;99.90;;;;;;7385782;19;20142;-74
2022/05/01 05:22:21;;;;;;;20.13;13.90;;;12.00;99.90;;;;;;7385735;19;20206;-74
2022/05/01 05:24:47;;;;;;;23.20;14.77;;;12.00;99.90;;;;;;7384486;19;20473;-76
2022/05/01 05:27:13;;;;;;;20.03;12.83;;;12.20;99.90;;;;;;7385340;19;20222;-74
2022/05/01 05:29:39;;;;;;;20.73;13.77;;;11.90;99.90;;;;;;7384009;19;20173;-74
2022/05/01 05:32:06;;;;;;;20.60;13.70;;;12.10;99.90;;;;;;7391199;19;20130;-74
2022/05/01 05:34:32;;;;;;;20.97;13.83;;;12.20;99.90;;;;;;7388874;19;20474;-75
2022/05/01 05:36:58;;;;;;;19.83;14.43;;;12.20;99.90;;;;;;7386651;19;20138;-74
2022/05/01 05:39:24;;;;;;;20.93;14.77;;;12.30;99.90;;;;;;7387596;19;20605;-75
2022/05/01 05:41:50;;;;;;;19.87;13.33;;;12.20;99.90;;;;;;7387141;19;20134;-75
2022/05/01 05:44:16;;;;;;;23.23;14.53;;;12.30;99.90;;;;;;7384973;19;20585;-76
2022/05/01 05:46:42;;;;;;;21.63;13.80;;;12.30;99.90;;;;;;7383137;19;20139;-75
2022/05/01 05:49:07;;;;;;;24.43;15.27;;;12.10;99.90;;;;;;7388297;19;20160;-74
2022/05/01 05:51:33;;;;;;;22.33;14.67;;;12.20;99.90;;;;;;7388902;19;20156;-74
2022/05/01 05:53:59;;;;;;;21.20;14.47;;;12.20;99.90;;;;;;7387525;19;20141;-74
2022/05/01 05:56:25;;;;;;;22.57;13.80;;;12.10;99.90;;;;;;7384233;19;20130;-76
2022/05/01 05:58:51;;;;;;;19.73;13.43;;;12.10;99.90;;;;;;7386847;19;20134;-75
2022/05/01 06:01:18;;;;;;;22.83;13.93;;;12.20;99.90;;;;;;7386513;19;20701;-74
2022/05/01 06:03:43;;;;;;;22.70;14.10;;;12.10;99.90;;;;;;7386903;19;20164;-75
2022/05/01 06:06:09;;;;;;;22.90;14.07;;;12.10;99.90;;;;;;7382084;19;20151;-74
2022/05/01 06:08:36;;;;;;;19.60;14.03;;;12.10;99.90;;;;;;7386713;19;20138;-74
2022/05/01 06:11:02;;;;;;;22.03;14.33;;;12.00;99.90;;;;;;7392954;19;20220;-75
2022/05/01 06:13:27;;;;;;;22.43;14.13;;;12.10;99.90;;;;;;7392640;19;20215;-73
2022/05/01 06:15:53;;;;;;;20.27;13.93;;;12.20;99.90;;;;;;7393516;19;20141;-75
2022/05/01 06:18:20;;;;;;;24.10;15.03;;;12.30;99.90;;;;;;7391843;19;20140;-74
2022/05/01 06:20:47;;;;;;;20.07;13.70;;;12.40;99.90;;;;;;7390885;19;20166;-75
2022/05/01 06:23:14;;;;;;;19.80;13.83;;;12.40;99.90;;;;;;7393620;19;20225;-75
2022/05/01 06:25:43;;;;;;;19.33;12.47;;;12.30;99.90;;;;;;7390269;19;20492;-76
2022/05/01 06:28:10;;;;;;;22.13;14.53;;;12.40;99.90;;;;;;7391508;19;20122;-75
2022/05/01 06:30:39;;;;;;;19.53;13.93;;;12.50;99.90;;;;;;7397697;19;20150;-73
2022/05/01 06:33:10;;;;;;;21.10;13.40;;;12.40;99.90;;;;;;7399364;19;20154;-75
2022/05/01 06:35:36;;;;;;;17.53;12.47;;;12.50;99.90;;;;;;7394867;19;20131;-71
2022/05/01 06:38:02;;;;;;;18.43;12.87;;;12.50;99.90;;;;;;7392841;19;20150;-74
2022/05/01 06:40:28;;;;;;;19.23;13.33;;;12.50;99.90;;;;;;7394347;19;20626;-75
2022/05/01 06:42:54;;;;;;;18.77;14.03;;;12.50;99.90;;;;;;7393902;19;20129;-75
2022/05/01 06:45:20;;;;;;;19.13;13.47;;;12.40;99.90;;;;;;7393266;19;20145;-75
2022/05/01 06:47:46;;;;;;;20.47;13.53;;;12.40;99.90;;;;;;7391623;19;20570;-74
2022/05/01 06:50:12;;;;;;;19.93;13.53;;;12.50;99.90;;;;;;7393882;19;20131;-74
2022/05/01 06:52:38;;;;;;;18.37;12.80;;;12.50;99.90;;;;;;7393531;19;20589;-73
2022/05/01 06:55:04;;;;;;;19.48;13.40;;;12.60;99.90;;;;;;7397390;19;20225;-72
2022/05/01 06:57:30;;;;;;;19.73;12.87;;;12.70;99.90;;;;;;7392846;19;20138;-73
2022/05/01 06:59:56;;;;;;;21.13;13.10;;;12.60;99.90;;;;;;7392603;19;20123;-72
2022/05/01 07:02:22;;;;;;;16.73;12.17;;;12.30;99.90;;;;;;7393065;19;20134;-76
2022/05/01 07:04:48;;;;;;;20.03;13.07;;;12.30;99.90;;;;;;7392301;19;20138;-76
2022/05/01 07:07:14;;;;;;;17.33;11.90;;;12.00;99.90;;;;;;7393252;19;20163;-74
2022/05/01 07:09:39;;;;;;;20.65;12.13;;;12.30;99.90;;;;;;7392534;19;20481;-74
2022/05/01 07:12:08;;;;;;;15.67;11.80;;;12.60;99.90;;;;;;7392243;19;20522;-75
2022/05/01 07:14:34;;;;;;;21.53;13.63;;;12.80;99.90;;;;;;7393083;19;20156;-75
2022/05/01 07:17:00;;;;;;;21.13;12.90;;;12.90;99.90;;;;;;7393642;19;20161;-71
2022/05/01 07:19:25;;;;;;;17.20;12.30;;;12.90;99.90;;;;;;7393571;19;20166;-74
2022/05/01 07:21:51;;;;;;;18.30;12.30;;;12.90;99.90;;;;;;7389324;19;20154;-72
2022/05/01 07:24:17;;;;;;;16.17;11.73;;;12.90;99.90;;;;;;7391461;19;20549;-71
2022/05/01 07:26:43;;;;;;;17.27;11.80;;;12.90;99.90;;;;;;7390137;19;20202;-71
2022/05/01 07:29:09;;;;;;;17.07;11.83;;;13.00;99.90;;;;;;7389580;19;20189;-75
2022/05/01 07:31:35;;;;;;;16.93;11.93;;;13.10;99.90;;;;;;7392223;19;20170;-72
2022/05/01 07:34:00;;;;;;;17.97;11.63;;;13.10;99.90;;;;;;7391016;19;20226;-75
2022/05/01 07:36:26;;;;;;;17.33;11.00;;;13.10;99.90;;;;;;7392584;19;20146;-70
2022/05/01 07:38:52;;;;;;;16.30;11.50;;;13.20;99.90;;;;;;7395769;19;20603;-71
2022/05/01 07:41:19;;;;;;;15.83;11.73;;;13.20;99.90;;;;;;7383361;19;20169;-74
2022/05/01 07:43:48;;;;;;;17.33;11.67;;;13.20;99.90;;;;;;7386370;19;20630;-71
2022/05/01 07:46:14;;;;;;;17.10;11.43;;;13.20;99.90;;;;;;7386891;19;20127;-74
2022/05/01 07:48:39;;;;;;;16.33;12.07;;;13.30;99.90;;;;;;7392513;19;20158;-74
2022/05/01 07:51:05;;;;;;;19.07;10.80;;;13.10;99.90;;;;;;7389205;19;20318;-71
2022/05/01 07:53:35;;;;;;;19.23;11.77;;;13.10;99.90;;;;;;7391469;19;20139;-74
2022/05/01 07:56:01;;;;;;;16.33;11.37;;;12.60;99.90;;;;;;7394154;19;20154;-75
2022/05/01 07:58:28;;;;;;;15.73;11.33;;;12.80;99.90;;;;;;7392762;19;20175;-77
2022/05/01 08:00:55;;;;;;;15.53;11.47;;;13.00;99.90;;;;;;7392848;19;20143;-74
2022/05/01 08:06:05;;;;;;;17.07;11.93;;;13.20;99.90;;;;;;7390613;19;20557;-72
2022/05/01 08:08:33;;;;;;;14.40;10.70;;;13.00;99.90;;;;;;7388752;19;20127;-74
2022/05/01 08:11:00;;;;;;;17.37;12.60;;;13.20;99.90;;;;;;7388255;19;20134;-75
2022/05/01 08:13:26;;;;;;;15.50;11.57;;;13.40;99.90;;;;;;7388194;19;20123;-73
2022/05/01 08:15:52;;;;;;;16.47;11.40;;;13.30;99.90;;;;;;7390138;19;20724;-75
2022/05/01 08:21:05;;;;;;;16.67;11.30;;;13.30;99.90;;;;;;7387003;19;20321;-75
2022/05/01 08:23:32;;;;;;;19.07;11.43;;;13.40;99.90;;;;;;7387097;19;20157;-71
2022/05/01 08:26:04;;;;;;;16.20;11.30;;;13.40;99.90;;;;;;7382272;19;20199;-72
2022/05/01 08:28:35;;;;;;;14.60;10.60;;;13.50;99.90;;;;;;7378699;19;20173;-73
2022/05/01 08:31:01;;;;;;;15.70;10.63;;;13.60;99.90;;;;;;7387174;19;20541;-72
2022/05/01 08:33:27;;;;;;;13.40;9.77;;;13.70;99.90;;;;;;7385651;19;20137;-74
2022/05/01 08:35:53;;;;;;;13.40;10.80;;;13.70;99.90;;;;;;7385675;19;20154;-70
2022/05/01 08:38:23;;;;;;;14.03;10.17;;;13.70;99.90;;;;;;7392193;19;20127;-75
2022/05/01 08:40:50;;;;;;;12.53;9.13;;;13.70;99.90;;;;;;7391563;19;20142;-76
2022/05/01 08:43:20;;;;;;;13.70;10.03;;;13.50;99.90;;;;;;7389965;19;20122;-77
2022/05/01 08:45:52;;;;;;;11.67;8.87;;;13.50;99.90;;;;;;7386424;19;20230;-73
2022/05/01 08:48:49;;;;;;;15.30;10.13;;;13.40;99.90;;;;;;7387672;19;20151;-76
2022/05/01 08:51:17;;;;;;;14.00;9.83;;;13.60;99.90;;;;;;7387560;19;20226;-72
2022/05/01 08:53:44;;;;;;;13.20;9.60;;;13.50;99.90;;;;;;7386879;19;20594;-74
2022/05/01 08:56:10;;;;;;;12.47;9.37;;;13.60;99.90;;;;;;7384630;19;20143;-75
2022/05/01 08:58:40;;;;;;;13.60;9.13;;;14.00;99.90;;;;;;7389101;19;20161;-74
2022/05/01 09:01:08;;;;;;;13.30;9.70;;;13.90;99.90;;;;;;7390340;19;20148;-72
2022/05/01 09:03:39;;;;;;;12.43;9.37;;;13.90;99.90;;;;;;7383866;19;20146;-77
2022/05/01 09:06:05;;;;;;;14.77;9.80;;;13.90;99.90;;;;;;7382883;19;20138;-71
2022/05/01 09:08:31;;;;;;;12.70;9.63;;;13.90;99.90;;;;;;7386763;19;20209;-72
2022/05/01 09:12:49;;;;;;;12.77;8.83;;;13.80;99.90;;;;;;7386685;19;20135;-72
2022/05/01 09:13:43;;;;;;;12.93;8.75;;;13.70;99.90;;;;;;7389113;19;20534;-72
2022/05/01 09:16:11;;;;;;;13.13;9.30;;;13.70;99.90;;;;;;7386551;19;20162;-72
2022/05/01 09:18:45;;;;;;;10.95;7.45;;;13.70;99.90;;;;;;7388067;19;20133;-74
2022/05/01 09:21:11;;;;;;;14.57;9.63;;;13.40;99.90;;;;;;7387106;19;20764;-74
2022/05/01 09:23:37;;;;;;;13.10;8.97;;;13.80;99.90;;;;;;7386691;19;20225;-75
2022/05/01 09:26:04;;;;;;;12.20;8.77;;;13.90;99.90;;;;;;7383247;19;20214;-75
2022/05/01 09:28:30;;;;;;;11.63;8.97;;;14.00;99.90;;;;;;7386533;19;20190;-75
2022/05/01 09:30:56;;;;;;;11.07;7.70;;;13.90;99.90;;;;;;7385990;19;20478;-75
2022/05/01 09:33:22;;;;;;;11.20;8.48;;;14.00;99.90;;;;;;7388190;19;20141;-70
2022/05/01 09:35:48;;;;;;;9.83;7.77;;;14.40;99.90;;;;;;7386973;19;20654;-75
2022/05/01 09:38:19;;;;;;;10.20;7.73;;;14.60;99.90;;;;;;7390498;19;20142;-72
2022/05/01 09:40:47;;;;;;;10.70;7.90;;;14.70;99.90;;;;;;7385845;19;20142;-76
2022/05/01 09:43:39;;;;;;;10.13;7.78;;;14.70;99.90;;;;;;7384220;19;20953;-74
2022/05/01 09:46:27;;;;;;;11.05;7.57;;;14.80;99.90;;;;;;7391189;19;20386;-75
2022/05/01 09:49:01;;;;;;;8.73;7.00;;;14.80;99.90;;;;;;7393195;19;20131;-74
2022/05/01 09:51:30;;;;;;;9.97;7.03;;;15.10;99.90;;;;;;7395644;19;20150;-77
2022/05/01 09:53:56;;;;;;;8.93;6.67;;;15.30;99.90;;;;;;7395152;19;20141;-77
2022/05/01 09:56:23;;;;;;;8.67;6.90;;;15.50;99.90;;;;;;7389904;19;20173;-77
2022/05/01 09:59:02;;;;;;;8.77;6.65;;;15.60;99.90;;;;;;7395117;19;20587;-76
2022/05/01 10:01:29;;;;;;;9.05;6.13;;;15.70;99.90;;;;;;7397715;19;20130;-74
2022/05/01 10:03:58;;;;;;;12.90;6.80;;;15.80;99.90;;;;;;7395281;19;20223;-76
2022/05/01 10:06:26;;;;;;;8.70;6.88;;;15.90;99.90;;;;;;7391788;19;20166;-77
2022/05/01 10:08:52;;;;;;;8.13;6.00;;;16.00;99.90;;;;;;7392894;19;20519;-77
2022/05/01 10:11:19;;;;;;;10.25;6.28;;;15.90;99.90;;;;;;7396792;19;20151;-75
2022/05/01 10:13:46;;;;;;;9.70;6.93;;;15.80;99.90;;;;;;7396951;19;20135;-76
2022/05/01 10:16:15;;;;;;;10.40;6.38;;;15.70;99.90;;;;;;7394213;19;20150;-70
2022/05/01 10:18:43;;;;;;;9.77;7.22;;;15.70;99.90;;;;;;7391041;19;20131;-72
2022/05/01 10:21:09;;;;;;;9.00;7.50;;;15.50;99.90;;;;;;7395140;19;20165;-72
2022/05/01 10:23:35;;;;;;;9.90;7.38;;;15.40;99.90;;;;;;7399456;19;20146;-72
2022/05/01 10:26:26;;;;;;;8.85;6.60;;;15.20;99.90;;;;;;7391090;19;20149;-72
2022/05/01 10:29:23;;;;;;;8.75;6.80;;;15.20;99.90;;;;;;7392001;19;20182;-74
2022/05/01 10:35:10;;;;;;;10.15;7.05;;;15.20;99.90;;;;;;7396693;19;20164;-76
2022/05/01 10:37:47;;;;;;;9.13;7.35;;;15.20;99.90;;;;;;7392960;19;20150;-76
2022/05/01 10:40:14;;;;;;;9.65;6.95;;;15.10;99.90;;;;;;7393848;19;20138;-77
2022/05/01 10:42:45;;;;;;;10.40;7.63;;;15.20;99.90;;;;;;7397912;19;20146;-74
2022/05/01 10:45:23;;;;;;;8.80;6.70;;;15.10;99.90;;;;;;7393544;19;20194;-73
2022/05/01 10:47:55;;;;;;;7.80;6.23;;;15.00;99.90;;;;;;7393988;19;20142;-75
2022/05/01 10:50:28;;;;;;;9.50;7.22;;;15.00;99.90;;;;;;7393812;19;20507;-75
2022/05/01 10:53:05;;;;;;;10.35;7.85;;;15.40;99.90;;;;;;7394299;19;20131;-75
2022/05/01 10:55:47;;;;;;;10.27;7.60;;;15.70;99.90;;;;;;7387738;19;20210;-75
2022/05/01 10:58:27;;;;;;;10.40;7.35;;;15.90;99.90;;;;;;7389602;19;20139;-74
2022/05/01 11:00:57;;;;;;;8.68;6.15;;;16.10;99.90;;;;;;7389706;19;20757;-74
2022/05/01 11:03:28;;;;;;;9.57;6.70;;;16.20;99.90;;;;;;7389786;19;20135;-74
2022/05/01 11:06:08;;;;;;;10.38;7.03;;;16.10;99.90;;;;;;7388633;19;20127;-74
2022/05/01 11:08:39;;;;;;;9.32;6.85;;;16.20;99.90;;;;;;7391718;19;20142;-75
2022/05/01 11:11:07;;;;;;;10.32;7.10;;;16.10;99.90;;;;;;7393021;19;20118;-74
2022/05/01 11:13:38;;;;;;;10.88;6.93;;;16.00;99.90;;;;;;7391407;19;20953;-74
2022/05/01 11:16:06;;;;;;;8.43;6.63;;;15.80;99.90;;;;;;7389771;19;20476;-75
2022/05/01 11:18:52;;;;;;;8.88;6.50;;;15.90;99.90;;;;;;7392179;19;20134;-74
2022/05/01 11:21:24;;;;;;;7.90;6.07;;;15.90;99.90;;;;;;7391781;19;20238;-75
2022/05/01 11:24:03;;;;;;;8.32;6.38;;;15.90;99.90;;;;;;7393577;19;20146;-75
2022/05/01 11:26:30;;;;;;;9.63;7.28;;;15.90;99.90;;;;;;7388413;19;20159;-74
2022/05/01 11:29:08;;;;;;;9.00;5.60;;;16.00;99.90;;;;;;7392507;19;20157;-75
2022/05/01 11:31:37;;;;;;;10.27;6.70;;;15.90;99.90;;;;;;7390042;19;20138;-75
2022/05/01 11:34:24;;;;;;;9.20;7.28;;;16.00;99.90;;;;;;7393349;19;20142;-74
2022/05/01 11:36:55;;;;;;;9.15;6.28;;;16.00;99.90;;;;;;7388000;19;20126;-74
2022/05/01 11:39:42;;;;;;;8.18;6.45;;;16.00;99.90;;;;;;7392130;19;20139;-76
2022/05/01 11:42:29;;;;;;;8.55;5.75;;;16.00;99.90;;;;;;7389367;19;20497;-75
2022/05/01 11:44:57;;;;;;;7.78;6.05;;;16.10;99.90;;;;;;7391840;19;20501;-74
2022/05/01 11:47:25;;;;;;;9.45;5.57;;;16.30;99.90;;;;;;7392104;19;20131;-76
2022/05/01 11:49:51;;;;;;;8.48;6.30;;;16.40;99.90;;;;;;7389428;19;20186;-75
2022/05/01 11:52:18;;;;;;;9.32;6.32;;;16.60;99.90;;;;;;7391472;19;20134;-73
2022/05/01 11:54:55;;;;;;;9.85;6.40;;;16.50;99.90;;;;;;7390512;19;20579;-74
2022/05/01 12:03:02;;;;;;;7.93;5.90;;;16.70;99.90;;;;;;7392127;19;20150;-74
2022/05/01 12:05:49;;;;;;;7.20;5.82;;;16.50;99.90;;;;;;7388561;19;20513;-74
2022/05/01 12:08:20;;;;;;;8.20;5.70;;;16.10;99.90;;;;;;7394518;19;20134;-74
2022/05/01 12:10:47;;;;;;;9.32;6.28;;;16.20;99.90;;;;;;7391962;19;20168;-73
2022/05/01 12:13:24;;;;;;;10.95;6.65;;;16.30;99.90;;;;;;7394489;19;20180;-73
2022/05/01 12:15:51;;;;;;;8.63;6.82;;;16.30;99.90;;;;;;7391179;19;20162;-76
2022/05/01 12:18:19;;;;;;;9.60;6.43;;;16.20;99.90;;;;;;7394402;19;20135;-76
2022/05/01 12:20:46;;;;;;;12.43;6.97;;;16.10;99.90;;;;;;7391528;19;20158;-75
2022/05/01 12:23:18;;;;;;;8.70;6.63;;;16.00;99.90;;;;;;7390230;19;20138;-72
2022/05/01 12:25:46;;;;;;;8.20;6.13;;;16.00;99.90;;;;;;7390056;19;20135;-72
2022/05/01 12:28:15;;;;;;;8.93;6.70;;;15.90;99.90;;;;;;7392555;19;20478;-72
2022/05/01 12:30:42;;;;;;;6.93;5.63;;;16.00;99.90;;;;;;7392318;19;20146;-73
2022/05/01 12:33:26;;;;;;;7.85;5.70;;;16.10;99.90;;;;;;7390474;19;20151;-72
2022/05/01 12:35:59;;;;;;;7.57;5.32;;;16.10;99.90;;;;;;7389233;19;20166;-75
2022/05/01 12:38:29;;;;;;;8.30;5.80;;;16.20;99.90;;;;;;7393216;19;20512;-74
2022/05/01 12:43:59;;;;;;;8.77;5.70;;;16.30;99.90;;;;;;7381907;19;20153;-70
2022/05/01 12:46:26;;;;;;;7.88;6.40;;;16.00;99.90;;;;;;7379049;19;20460;-73
2022/05/01 12:48:53;;;;;;;9.48;6.70;;;16.10;99.90;;;;;;7381958;19;20134;-70
2022/05/01 12:51:19;;;;;;;8.38;6.40;;;16.30;99.90;;;;;;7387799;19;20150;-79
2022/05/01 12:53:46;;;;;;;7.93;6.30;;;16.20;99.90;;;;;;7390452;19;20155;-78
2022/05/01 12:56:23;;;;;;;9.10;6.53;;;16.20;99.90;;;;;;7391066;19;20141;-70
2022/05/01 12:58:50;;;;;;;7.43;5.82;;;16.40;99.90;;;;;;7390455;19;20188;-76
2022/05/01 13:01:29;;;;;;;7.80;5.38;;;16.40;99.90;;;;;;7392307;19;20142;-71
2022/05/01 13:03:55;;;;;;;6.03;5.18;;;16.70;99.90;;;;;;7393124;19;20143;-77
2022/05/01 13:06:23;;;;;;;6.15;5.38;;;16.90;99.90;;;;;;7392491;19;20174;-72
2022/05/01 13:09:09;;;;;;;6.45;5.40;;;17.20;99.90;;;;;;7398828;19;20146;-75